sensor_id;sensor_type;location;lat;lon;timestamp;temperature;humidity
72440;DHT22;60446;50.752;4.352;2023-06-14T00:02:11;20.30;46.80
72440;DHT22;60446;50.752;4.352;2023-06-14T00:04:46;20.20;48.80
72440;DHT22;60446;50.752;4.352;2023-06-14T00:07:15;20.10;48.40
72440;DHT22;60446;50.752;4.352;2023-06-14T00:09:43;20.00;46.70
72440;DHT22;60446;50.752;4.352;2023-06-14T00:12:13;20.00;47.40
72440;DHT22;60446;50.752;4.352;2023-06-14T00:14:43;19.90;46.70
72440;DHT22;60446;50.752;4.352;2023-06-14T00:17:15;20.00;46.60
72440;DHT22;60446;50.752;4.352;2023-06-14T00:19:48;20.00;46.90
72440;DHT22;60446;50.752;4.352;2023-06-14T00:22:16;19.90;46.30
72440;DHT22;60446;50.752;4.352;2023-06-14T00:24:44;19.90;47.70
72440;DHT22;60446;50.752;4.352;2023-06-14T00:27:12;19.90;46.80
72440;DHT22;60446;50.752;4.352;2023-06-14T00:29:40;19.80;47.60
72440;DHT22;60446;50.752;4.352;2023-06-14T00:32:09;19.80;48.10
72440;DHT22;60446;50.752;4.352;2023-06-14T00:34:37;19.80;46.80
72440;DHT22;60446;50.752;4.352;2023-06-14T00:37:07;19.80;47.40
72440;DHT22;60446;50.752;4.352;2023-06-14T00:39:35;19.70;48.80
72440;DHT22;60446;50.752;4.352;2023-06-14T00:42:02;19.60;48.60
72440;DHT22;60446;50.752;4.352;2023-06-14T00:44:29;19.60;47.10
72440;DHT22;60446;50.752;4.352;2023-06-14T00:46:57;19.50;48.40
72440;DHT22;60446;50.752;4.352;2023-06-14T00:49:24;19.50;48.20
72440;DHT22;60446;50.752;4.352;2023-06-14T00:51:54;19.40;49.00
72440;DHT22;60446;50.752;4.352;2023-06-14T00:54:24;19.40;50.10
72440;DHT22;60446;50.752;4.352;2023-06-14T00:56:54;19.40;49.20
72440;DHT22;60446;50.752;4.352;2023-06-14T00:59:21;19.30;50.00
72440;DHT22;60446;50.752;4.352;2023-06-14T01:01:50;19.30;48.20
72440;DHT22;60446;50.752;4.352;2023-06-14T01:04:18;19.30;49.90
72440;DHT22;60446;50.752;4.352;2023-06-14T01:07:00;19.20;49.90
72440;DHT22;60446;50.752;4.352;2023-06-14T01:09:58;19.20;49.20
72440;DHT22;60446;50.752;4.352;2023-06-14T01:15:47;19.20;49.90
72440;DHT22;60446;50.752;4.352;2023-06-14T01:18:15;19.10;49.80
72440;DHT22;60446;50.752;4.352;2023-06-14T01:20:49;19.10;50.40
72440;DHT22;60446;50.752;4.352;2023-06-14T01:23:20;19.10;49.70
72440;DHT22;60446;50.752;4.352;2023-06-14T01:25:53;19.00;49.90
72440;DHT22;60446;50.752;4.352;2023-06-14T01:28:23;19.00;50.70
72440;DHT22;60446;50.752;4.352;2023-06-14T01:30:54;19.00;49.50
72440;DHT22;60446;50.752;4.352;2023-06-14T01:33:24;19.00;48.50
72440;DHT22;60446;50.752;4.352;2023-06-14T01:35:58;19.00;49.20
72440;DHT22;60446;50.752;4.352;2023-06-14T01:38:36;19.00;50.10
72440;DHT22;60446;50.752;4.352;2023-06-14T01:41:04;19.00;50.20
72440;DHT22;60446;50.752;4.352;2023-06-14T01:43:36;18.90;48.80
72440;DHT22;60446;50.752;4.352;2023-06-14T01:46:05;18.90;50.20
72440;DHT22;60446;50.752;4.352;2023-06-14T01:48:35;18.90;50.40
72440;DHT22;60446;50.752;4.352;2023-06-14T01:51:05;18.90;49.30
72440;DHT22;60446;50.752;4.352;2023-06-14T01:53:38;18.90;49.30
72440;DHT22;60446;50.752;4.352;2023-06-14T01:56:08;18.90;49.60
72440;DHT22;60446;50.752;4.352;2023-06-14T01:58:35;18.90;50.00
72440;DHT22;60446;50.752;4.352;2023-06-14T02:01:03;18.90;49.00
72440;DHT22;60446;50.752;4.352;2023-06-14T02:03:30;18.80;48.80
72440;DHT22;60446;50.752;4.352;2023-06-14T02:05:58;18.80;49.10
72440;DHT22;60446;50.752;4.352;2023-06-14T02:08:28;18.80;49.30
72440;DHT22;60446;50.752;4.352;2023-06-14T02:10:59;18.80;49.10
72440;DHT22;60446;50.752;4.352;2023-06-14T02:13:29;18.70;49.50
72440;DHT22;60446;50.752;4.352;2023-06-14T02:16:01;18.60;49.50
72440;DHT22;60446;50.752;4.352;2023-06-14T02:18:31;18.60;49.80
72440;DHT22;60446;50.752;4.352;2023-06-14T02:21:06;18.60;49.60
72440;DHT22;60446;50.752;4.352;2023-06-14T02:23:37;18.70;49.50
72440;DHT22;60446;50.752;4.352;2023-06-14T02:26:05;18.60;50.00
72440;DHT22;60446;50.752;4.352;2023-06-14T02:28:34;18.50;49.90
72440;DHT22;60446;50.752;4.352;2023-06-14T02:31:03;18.50;49.90
72440;DHT22;60446;50.752;4.352;2023-06-14T02:33:33;18.50;49.80
72440;DHT22;60446;50.752;4.352;2023-06-14T02:36:06;18.50;50.40
72440;DHT22;60446;50.752;4.352;2023-06-14T02:38:36;18.40;50.30
72440;DHT22;60446;50.752;4.352;2023-06-14T02:41:08;18.40;50.30
72440;DHT22;60446;50.752;4.352;2023-06-14T02:43:36;18.40;50.30
72440;DHT22;60446;50.752;4.352;2023-06-14T02:46:06;18.30;50.40
72440;DHT22;60446;50.752;4.352;2023-06-14T02:48:34;18.30;50.60
72440;DHT22;60446;50.752;4.352;2023-06-14T02:51:01;18.20;50.70
72440;DHT22;60446;50.752;4.352;2023-06-14T02:53:31;18.20;51.40
72440;DHT22;60446;50.752;4.352;2023-06-14T02:56:03;18.10;50.70
72440;DHT22;60446;50.752;4.352;2023-06-14T02:58:38;18.10;50.90
72440;DHT22;60446;50.752;4.352;2023-06-14T03:01:14;18.20;51.00
72440;DHT22;60446;50.752;4.352;2023-06-14T03:03:42;18.20;51.50
72440;DHT22;60446;50.752;4.352;2023-06-14T03:06:12;18.20;51.10
72440;DHT22;60446;50.752;4.352;2023-06-14T03:08:47;18.10;51.70
72440;DHT22;60446;50.752;4.352;2023-06-14T03:11:20;18.10;52.30
72440;DHT22;60446;50.752;4.352;2023-06-14T03:13:48;18.10;51.40
72440;DHT22;60446;50.752;4.352;2023-06-14T03:16:28;18.00;52.90
72440;DHT22;60446;50.752;4.352;2023-06-14T03:19:01;18.00;52.70
72440;DHT22;60446;50.752;4.352;2023-06-14T03:21:34;18.00;52.20
72440;DHT22;60446;50.752;4.352;2023-06-14T03:24:14;18.00;51.90
72440;DHT22;60446;50.752;4.352;2023-06-14T03:26:45;18.00;51.60
72440;DHT22;60446;50.752;4.352;2023-06-14T03:29:18;17.90;51.70
72440;DHT22;60446;50.752;4.352;2023-06-14T03:32:15;17.90;52.90
72440;DHT22;60446;50.752;4.352;2023-06-14T03:34:44;17.90;52.40
72440;DHT22;60446;50.752;4.352;2023-06-14T03:37:18;17.80;53.20
72440;DHT22;60446;50.752;4.352;2023-06-14T03:39:48;17.80;55.10
72440;DHT22;60446;50.752;4.352;2023-06-14T03:42:22;17.70;52.70
72440;DHT22;60446;50.752;4.352;2023-06-14T03:44:55;17.70;52.70
72440;DHT22;60446;50.752;4.352;2023-06-14T03:47:27;17.70;52.30
72440;DHT22;60446;50.752;4.352;2023-06-14T03:49:59;17.70;53.10
72440;DHT22;60446;50.752;4.352;2023-06-14T03:52:48;17.70;53.30
72440;DHT22;60446;50.752;4.352;2023-06-14T03:55:22;17.70;52.40
72440;DHT22;60446;50.752;4.352;2023-06-14T03:58:05;17.70;52.50
72440;DHT22;60446;50.752;4.352;2023-06-14T04:00:44;17.70;53.60
72440;DHT22;60446;50.752;4.352;2023-06-14T04:03:14;17.70;52.40
72440;DHT22;60446;50.752;4.352;2023-06-14T04:05:45;17.60;52.80
72440;DHT22;60446;50.752;4.352;2023-06-14T04:08:17;17.60;53.30
72440;DHT22;60446;50.752;4.352;2023-06-14T04:10:52;17.60;53.50
72440;DHT22;60446;50.752;4.352;2023-06-14T04:13:28;17.60;55.00
72440;DHT22;60446;50.752;4.352;2023-06-14T04:15:59;17.50;54.90
72440;DHT22;60446;50.752;4.352;2023-06-14T04:18:38;17.50;55.20
72440;DHT22;60446;50.752;4.352;2023-06-14T04:21:10;17.50;55.00
72440;DHT22;60446;50.752;4.352;2023-06-14T04:23:47;17.50;54.60
72440;DHT22;60446;50.752;4.352;2023-06-14T04:26:29;17.50;55.20
72440;DHT22;60446;50.752;4.352;2023-06-14T04:29:08;17.50;55.50
72440;DHT22;60446;50.752;4.352;2023-06-14T04:31:46;17.50;55.90
72440;DHT22;60446;50.752;4.352;2023-06-14T04:34:26;17.50;55.70
72440;DHT22;60446;50.752;4.352;2023-06-14T04:37:03;17.40;54.70
72440;DHT22;60446;50.752;4.352;2023-06-14T04:39:37;17.40;55.70
72440;DHT22;60446;50.752;4.352;2023-06-14T04:42:21;17.50;54.70
72440;DHT22;60446;50.752;4.352;2023-06-14T04:45:00;17.50;55.90
72440;DHT22;60446;50.752;4.352;2023-06-14T04:47:42;17.50;54.90
72440;DHT22;60446;50.752;4.352;2023-06-14T04:50:29;17.60;54.80
72440;DHT22;60446;50.752;4.352;2023-06-14T04:53:06;17.70;53.90
72440;DHT22;60446;50.752;4.352;2023-06-14T04:55:41;17.80;53.80
72440;DHT22;60446;50.752;4.352;2023-06-14T04:58:14;17.80;54.20
72440;DHT22;60446;50.752;4.352;2023-06-14T05:00:52;17.80;54.50
72440;DHT22;60446;50.752;4.352;2023-06-14T05:03:36;17.90;54.00
72440;DHT22;60446;50.752;4.352;2023-06-14T05:06:05;18.00;55.10
72440;DHT22;60446;50.752;4.352;2023-06-14T05:08:33;18.10;53.80
72440;DHT22;60446;50.752;4.352;2023-06-14T05:11:00;18.10;53.60
72440;DHT22;60446;50.752;4.352;2023-06-14T05:13:35;18.20;53.80
72440;DHT22;60446;50.752;4.352;2023-06-14T05:16:11;18.20;53.30
72440;DHT22;60446;50.752;4.352;2023-06-14T05:19:05;18.20;53.40
72440;DHT22;60446;50.752;4.352;2023-06-14T05:21:48;18.30;52.80
72440;DHT22;60446;50.752;4.352;2023-06-14T05:24:20;18.30;52.80
72440;DHT22;60446;50.752;4.352;2023-06-14T05:26:55;18.40;52.40
72440;DHT22;60446;50.752;4.352;2023-06-14T05:29:47;18.50;53.20
72440;DHT22;60446;50.752;4.352;2023-06-14T05:32:15;18.50;52.70
72440;DHT22;60446;50.752;4.352;2023-06-14T05:34:51;18.50;52.90
72440;DHT22;60446;50.752;4.352;2023-06-14T05:37:25;18.50;53.70
72440;DHT22;60446;50.752;4.352;2023-06-14T05:40:02;18.60;52.50
72440;DHT22;60446;50.752;4.352;2023-06-14T05:42:41;18.60;52.80
72440;DHT22;60446;50.752;4.352;2023-06-14T05:45:19;18.70;53.30
72440;DHT22;60446;50.752;4.352;2023-06-14T05:47:57;18.70;53.20
72440;DHT22;60446;50.752;4.352;2023-06-14T05:50:24;18.80;52.70
72440;DHT22;60446;50.752;4.352;2023-06-14T05:52:52;18.80;53.30
72440;DHT22;60446;50.752;4.352;2023-06-14T05:55:20;18.90;51.90
72440;DHT22;60446;50.752;4.352;2023-06-14T05:57:48;19.00;52.70
72440;DHT22;60446;50.752;4.352;2023-06-14T06:00:16;19.00;52.50
72440;DHT22;60446;50.752;4.352;2023-06-14T06:02:44;19.20;51.80
72440;DHT22;60446;50.752;4.352;2023-06-14T06:05:12;19.20;52.30
72440;DHT22;60446;50.752;4.352;2023-06-14T06:07:41;19.30;52.00
72440;DHT22;60446;50.752;4.352;2023-06-14T06:10:09;19.30;51.00
72440;DHT22;60446;50.752;4.352;2023-06-14T06:12:37;19.40;51.60
72440;DHT22;60446;50.752;4.352;2023-06-14T06:15:10;19.40;52.10
72440;DHT22;60446;50.752;4.352;2023-06-14T06:17:44;19.40;50.60
72440;DHT22;60446;50.752;4.352;2023-06-14T06:20:23;19.50;51.90
72440;DHT22;60446;50.752;4.352;2023-06-14T06:22:58;19.70;50.60
72440;DHT22;60446;50.752;4.352;2023-06-14T06:25:32;19.80;52.00
72440;DHT22;60446;50.752;4.352;2023-06-14T06:28:00;19.90;51.80
72440;DHT22;60446;50.752;4.352;2023-06-14T06:30:30;20.00;51.30
72440;DHT22;60446;50.752;4.352;2023-06-14T06:33:01;20.00;50.80
72440;DHT22;60446;50.752;4.352;2023-06-14T06:35:30;20.00;50.30
72440;DHT22;60446;50.752;4.352;2023-06-14T06:38:05;20.10;50.40
72440;DHT22;60446;50.752;4.352;2023-06-14T06:40:32;20.10;50.80
72440;DHT22;60446;50.752;4.352;2023-06-14T06:43:07;20.30;50.90
72440;DHT22;60446;50.752;4.352;2023-06-14T06:45:41;20.40;49.50
72440;DHT22;60446;50.752;4.352;2023-06-14T06:48:11;20.60;49.90
72440;DHT22;60446;50.752;4.352;2023-06-14T06:50:39;20.70;49.30
72440;DHT22;60446;50.752;4.352;2023-06-14T06:53:06;20.70;49.50
72440;DHT22;60446;50.752;4.352;2023-06-14T06:55:33;20.80;49.10
72440;DHT22;60446;50.752;4.352;2023-06-14T06:58:00;20.90;48.90
72440;DHT22;60446;50.752;4.352;2023-06-14T07:00:28;20.90;48.80
72440;DHT22;60446;50.752;4.352;2023-06-14T07:02:55;21.00;49.10
72440;DHT22;60446;50.752;4.352;2023-06-14T07:05:23;21.00;48.30
72440;DHT22;60446;50.752;4.352;2023-06-14T07:07:51;21.00;48.80
72440;DHT22;60446;50.752;4.352;2023-06-14T07:10:18;21.00;49.20
72440;DHT22;60446;50.752;4.352;2023-06-14T07:12:45;21.20;48.50
72440;DHT22;60446;50.752;4.352;2023-06-14T07:15:15;21.20;48.80
72440;DHT22;60446;50.752;4.352;2023-06-14T07:17:43;21.30;48.10
72440;DHT22;60446;50.752;4.352;2023-06-14T07:20:13;21.30;48.60
72440;DHT22;60446;50.752;4.352;2023-06-14T07:22:42;21.50;47.70
72440;DHT22;60446;50.752;4.352;2023-06-14T07:25:10;21.70;48.10
72440;DHT22;60446;50.752;4.352;2023-06-14T07:27:46;21.70;48.90
72440;DHT22;60446;50.752;4.352;2023-06-14T07:30:16;21.90;47.80
72440;DHT22;60446;50.752;4.352;2023-06-14T07:32:52;21.90;47.60
72440;DHT22;60446;50.752;4.352;2023-06-14T07:35:28;22.00;47.10
72440;DHT22;60446;50.752;4.352;2023-06-14T07:37:56;22.20;46.80
72440;DHT22;60446;50.752;4.352;2023-06-14T07:40:29;22.20;46.10
72440;DHT22;60446;50.752;4.352;2023-06-14T07:43:02;22.30;47.10
72440;DHT22;60446;50.752;4.352;2023-06-14T07:45:37;22.40;47.20
72440;DHT22;60446;50.752;4.352;2023-06-14T07:48:32;22.50;47.60
72440;DHT22;60446;50.752;4.352;2023-06-14T07:51:09;22.60;47.30
72440;DHT22;60446;50.752;4.352;2023-06-14T07:53:45;22.70;45.50
72440;DHT22;60446;50.752;4.352;2023-06-14T07:56:13;22.70;45.60
72440;DHT22;60446;50.752;4.352;2023-06-14T07:58:40;22.70;45.70
72440;DHT22;60446;50.752;4.352;2023-06-14T08:01:08;22.80;46.90
72440;DHT22;60446;50.752;4.352;2023-06-14T08:03:36;23.00;45.30
72440;DHT22;60446;50.752;4.352;2023-06-14T08:06:04;22.90;47.00
72440;DHT22;60446;50.752;4.352;2023-06-14T08:08:31;22.90;47.40
72440;DHT22;60446;50.752;4.352;2023-06-14T08:10:58;23.10;47.10
72440;DHT22;60446;50.752;4.352;2023-06-14T08:13:26;23.20;43.80
72440;DHT22;60446;50.752;4.352;2023-06-14T08:15:53;23.20;46.70
72440;DHT22;60446;50.752;4.352;2023-06-14T08:18:23;23.40;43.50
72440;DHT22;60446;50.752;4.352;2023-06-14T08:20:50;23.40;43.80
72440;DHT22;60446;50.752;4.352;2023-06-14T08:23:18;23.40;44.90
72440;DHT22;60446;50.752;4.352;2023-06-14T08:25:47;23.50;44.40
72440;DHT22;60446;50.752;4.352;2023-06-14T08:28:15;23.60;44.50
72440;DHT22;60446;50.752;4.352;2023-06-14T08:30:43;23.70;43.80
72440;DHT22;60446;50.752;4.352;2023-06-14T08:33:10;23.90;43.40
72440;DHT22;60446;50.752;4.352;2023-06-14T08:35:43;24.00;42.10
72440;DHT22;60446;50.752;4.352;2023-06-14T08:38:11;24.10;42.70
72440;DHT22;60446;50.752;4.352;2023-06-14T08:40:40;24.20;42.00
72440;DHT22;60446;50.752;4.352;2023-06-14T08:43:09;24.20;42.50
72440;DHT22;60446;50.752;4.352;2023-06-14T08:45:36;24.20;44.50
72440;DHT22;60446;50.752;4.352;2023-06-14T08:48:05;24.40;42.00
72440;DHT22;60446;50.752;4.352;2023-06-14T08:50:34;24.50;43.00
72440;DHT22;60446;50.752;4.352;2023-06-14T08:53:05;24.50;43.00
72440;DHT22;60446;50.752;4.352;2023-06-14T08:55:38;24.70;41.60
72440;DHT22;60446;50.752;4.352;2023-06-14T08:58:09;24.80;41.90
72440;DHT22;60446;50.752;4.352;2023-06-14T09:00:42;24.90;41.70
72440;DHT22;60446;50.752;4.352;2023-06-14T09:03:10;25.00;40.70
72440;DHT22;60446;50.752;4.352;2023-06-14T09:05:41;24.90;40.40
72440;DHT22;60446;50.752;4.352;2023-06-14T09:08:08;25.00;40.70
72440;DHT22;60446;50.752;4.352;2023-06-14T09:10:36;25.10;40.70
72440;DHT22;60446;50.752;4.352;2023-06-14T09:13:05;25.30;41.00
72440;DHT22;60446;50.752;4.352;2023-06-14T09:15:34;25.30;40.70
72440;DHT22;60446;50.752;4.352;2023-06-14T09:18:02;25.30;42.70
72440;DHT22;60446;50.752;4.352;2023-06-14T09:20:31;25.40;42.50
72440;DHT22;60446;50.752;4.352;2023-06-14T09:22:58;25.50;41.70
72440;DHT22;60446;50.752;4.352;2023-06-14T09:25:27;25.50;42.40
72440;DHT22;60446;50.752;4.352;2023-06-14T09:28:07;25.60;41.70
72440;DHT22;60446;50.752;4.352;2023-06-14T09:30:38;25.60;42.90
72440;DHT22;60446;50.752;4.352;2023-06-14T09:33:06;25.60;42.40
72440;DHT22;60446;50.752;4.352;2023-06-14T09:35:33;25.50;42.40
72440;DHT22;60446;50.752;4.352;2023-06-14T09:38:01;25.50;43.20
72440;DHT22;60446;50.752;4.352;2023-06-14T09:40:28;25.60;43.10
72440;DHT22;60446;50.752;4.352;2023-06-14T09:43:00;25.80;42.60
72440;DHT22;60446;50.752;4.352;2023-06-14T09:45:28;25.80;42.30
72440;DHT22;60446;50.752;4.352;2023-06-14T09:47:58;25.80;42.60
72440;DHT22;60446;50.752;4.352;2023-06-14T09:50:28;25.70;41.00
72440;DHT22;60446;50.752;4.352;2023-06-14T09:53:05;25.80;44.00
72440;DHT22;60446;50.752;4.352;2023-06-14T09:55:38;26.00;42.10
72440;DHT22;60446;50.752;4.352;2023-06-14T09:58:08;26.00;40.80
72440;DHT22;60446;50.752;4.352;2023-06-14T10:00:36;26.00;41.40
72440;DHT22;60446;50.752;4.352;2023-06-14T10:03:13;26.10;41.70
72440;DHT22;60446;50.752;4.352;2023-06-14T10:05:45;26.10;39.70
72440;DHT22;60446;50.752;4.352;2023-06-14T10:08:16;26.20;40.80
72440;DHT22;60446;50.752;4.352;2023-06-14T10:10:45;26.30;40.50
72440;DHT22;60446;50.752;4.352;2023-06-14T10:13:13;26.20;39.80
72440;DHT22;60446;50.752;4.352;2023-06-14T10:22:32;26.50;40.30
72440;DHT22;60446;50.752;4.352;2023-06-14T10:24:45;26.10;39.10
72440;DHT22;60446;50.752;4.352;2023-06-14T10:27:15;26.10;40.00
72440;DHT22;60446;50.752;4.352;2023-06-14T10:32:25;26.20;39.00
72440;DHT22;60446;50.752;4.352;2023-06-14T10:35:01;26.30;40.40
72440;DHT22;60446;50.752;4.352;2023-06-14T10:37:33;26.30;40.80
72440;DHT22;60446;50.752;4.352;2023-06-14T10:40:00;26.50;39.20
72440;DHT22;60446;50.752;4.352;2023-06-14T10:42:37;26.70;39.70
72440;DHT22;60446;50.752;4.352;2023-06-14T10:45:04;26.90;38.90
72440;DHT22;60446;50.752;4.352;2023-06-14T10:47:33;27.10;38.00
72440;DHT22;60446;50.752;4.352;2023-06-14T10:50:03;26.90;37.70
72440;DHT22;60446;50.752;4.352;2023-06-14T10:52:38;27.00;39.10
72440;DHT22;60446;50.752;4.352;2023-06-14T10:55:14;27.00;35.90
72440;DHT22;60446;50.752;4.352;2023-06-14T10:57:45;26.80;36.80
72440;DHT22;60446;50.752;4.352;2023-06-14T11:00:25;26.60;36.20
72440;DHT22;60446;50.752;4.352;2023-06-14T11:03:07;26.60;37.00
72440;DHT22;60446;50.752;4.352;2023-06-14T11:05:59;26.60;36.00
72440;DHT22;60446;50.752;4.352;2023-06-14T11:11:16;26.70;35.80
72440;DHT22;60446;50.752;4.352;2023-06-14T11:13:47;26.70;36.00
72440;DHT22;60446;50.752;4.352;2023-06-14T11:16:16;26.70;37.70
72440;DHT22;60446;50.752;4.352;2023-06-14T11:18:49;26.90;38.40
72440;DHT22;60446;50.752;4.352;2023-06-14T11:21:17;26.90;37.20
72440;DHT22;60446;50.752;4.352;2023-06-14T11:23:51;27.00;37.80
72440;DHT22;60446;50.752;4.352;2023-06-14T11:26:29;27.00;35.70
72440;DHT22;60446;50.752;4.352;2023-06-14T11:28:58;27.00;36.00
72440;DHT22;60446;50.752;4.352;2023-06-14T11:31:29;27.00;35.80
72440;DHT22;60446;50.752;4.352;2023-06-14T11:33:58;27.00;36.90
72440;DHT22;60446;50.752;4.352;2023-06-14T11:36:29;27.00;36.50
72440;DHT22;60446;50.752;4.352;2023-06-14T11:39:05;27.20;35.80
72440;DHT22;60446;50.752;4.352;2023-06-14T11:41:38;27.40;36.10
72440;DHT22;60446;50.752;4.352;2023-06-14T11:44:07;27.70;37.90
72440;DHT22;60446;50.752;4.352;2023-06-14T11:46:35;27.80;36.40
72440;DHT22;60446;50.752;4.352;2023-06-14T11:49:03;28.20;37.10
72440;DHT22;60446;50.752;4.352;2023-06-14T11:51:35;28.30;35.80
72440;DHT22;60446;50.752;4.352;2023-06-14T11:54:03;28.40;36.30
72440;DHT22;60446;50.752;4.352;2023-06-14T11:56:31;28.50;35.20
72440;DHT22;60446;50.752;4.352;2023-06-14T11:58:59;28.30;36.50
72440;DHT22;60446;50.752;4.352;2023-06-14T12:01:30;28.40;37.00
72440;DHT22;60446;50.752;4.352;2023-06-14T12:03:59;28.30;36.00
72440;DHT22;60446;50.752;4.352;2023-06-14T12:06:29;28.40;36.00
72440;DHT22;60446;50.752;4.352;2023-06-14T12:09:03;28.30;36.70
72440;DHT22;60446;50.752;4.352;2023-06-14T12:11:34;28.70;35.70
72440;DHT22;60446;50.752;4.352;2023-06-14T12:14:06;28.80;34.90
72440;DHT22;60446;50.752;4.352;2023-06-14T12:16:36;28.50;34.50
72440;DHT22;60446;50.752;4.352;2023-06-14T12:19:16;28.40;37.40
72440;DHT22;60446;50.752;4.352;2023-06-14T12:21:46;28.50;35.70
72440;DHT22;60446;50.752;4.352;2023-06-14T12:24:17;28.40;34.20
72440;DHT22;60446;50.752;4.352;2023-06-14T12:26:45;28.30;34.40
72440;DHT22;60446;50.752;4.352;2023-06-14T12:29:13;28.00;35.30
72440;DHT22;60446;50.752;4.352;2023-06-14T12:31:41;27.90;35.30
72440;DHT22;60446;50.752;4.352;2023-06-14T12:34:08;27.90;35.90
72440;DHT22;60446;50.752;4.352;2023-06-14T12:36:36;27.80;35.40
72440;DHT22;60446;50.752;4.352;2023-06-14T12:39:08;27.90;36.10
72440;DHT22;60446;50.752;4.352;2023-06-14T12:41:36;27.90;33.60
72440;DHT22;60446;50.752;4.352;2023-06-14T12:44:04;27.70;33.40
72440;DHT22;60446;50.752;4.352;2023-06-14T12:46:31;27.60;35.80
72440;DHT22;60446;50.752;4.352;2023-06-14T12:48:59;27.60;34.20
72440;DHT22;60446;50.752;4.352;2023-06-14T12:51:26;27.70;36.20
72440;DHT22;60446;50.752;4.352;2023-06-14T12:53:54;27.90;35.20
72440;DHT22;60446;50.752;4.352;2023-06-14T12:56:21;28.10;35.10
72440;DHT22;60446;50.752;4.352;2023-06-14T12:58:50;28.30;35.60
72440;DHT22;60446;50.752;4.352;2023-06-14T13:01:18;28.40;34.50
72440;DHT22;60446;50.752;4.352;2023-06-14T13:03:49;28.40;32.60
72440;DHT22;60446;50.752;4.352;2023-06-14T13:06:18;28.40;34.20
72440;DHT22;60446;50.752;4.352;2023-06-14T13:08:47;28.30;32.60
72440;DHT22;60446;50.752;4.352;2023-06-14T13:11:15;28.00;33.00
72440;DHT22;60446;50.752;4.352;2023-06-14T13:13:42;27.80;35.20
72440;DHT22;60446;50.752;4.352;2023-06-14T13:16:10;27.90;33.60
72440;DHT22;60446;50.752;4.352;2023-06-14T13:18:39;27.90;33.50
72440;DHT22;60446;50.752;4.352;2023-06-14T13:21:06;27.80;34.90
72440;DHT22;60446;50.752;4.352;2023-06-14T13:23:34;27.90;35.00
72440;DHT22;60446;50.752;4.352;2023-06-14T13:26:01;28.00;35.00
72440;DHT22;60446;50.752;4.352;2023-06-14T13:28:30;28.00;34.80
72440;DHT22;60446;50.752;4.352;2023-06-14T13:30:58;28.20;34.30
72440;DHT22;60446;50.752;4.352;2023-06-14T13:33:25;28.50;36.10
72440;DHT22;60446;50.752;4.352;2023-06-14T13:35:52;28.80;36.00
72440;DHT22;60446;50.752;4.352;2023-06-14T13:38:20;29.10;34.90
72440;DHT22;60446;50.752;4.352;2023-06-14T13:40:47;29.30;35.70
72440;DHT22;60446;50.752;4.352;2023-06-14T13:43:14;29.40;35.70
72440;DHT22;60446;50.752;4.352;2023-06-14T13:45:41;29.50;34.40
72440;DHT22;60446;50.752;4.352;2023-06-14T13:48:08;29.50;31.60
72440;DHT22;60446;50.752;4.352;2023-06-14T13:50:35;29.10;32.20
72440;DHT22;60446;50.752;4.352;2023-06-14T13:53:03;28.60;32.60
72440;DHT22;60446;50.752;4.352;2023-06-14T13:55:30;28.50;33.30
72440;DHT22;60446;50.752;4.352;2023-06-14T13:57:57;28.60;34.80
72440;DHT22;60446;50.752;4.352;2023-06-14T14:00:24;28.90;34.60
72440;DHT22;60446;50.752;4.352;2023-06-14T14:02:52;29.00;32.60
72440;DHT22;60446;50.752;4.352;2023-06-14T14:05:19;29.10;32.60
72440;DHT22;60446;50.752;4.352;2023-06-14T14:07:47;29.40;32.60
72440;DHT22;60446;50.752;4.352;2023-06-14T14:10:14;29.60;31.70
72440;DHT22;60446;50.752;4.352;2023-06-14T14:12:42;29.70;32.70
72440;DHT22;60446;50.752;4.352;2023-06-14T14:15:09;29.70;31.60
72440;DHT22;60446;50.752;4.352;2023-06-14T14:17:40;29.50;33.20
72440;DHT22;60446;50.752;4.352;2023-06-14T14:20:08;29.40;32.60
72440;DHT22;60446;50.752;4.352;2023-06-14T14:22:36;29.30;32.60
72440;DHT22;60446;50.752;4.352;2023-06-14T14:25:03;29.50;33.10
72440;DHT22;60446;50.752;4.352;2023-06-14T14:27:31;29.60;31.70
72440;DHT22;60446;50.752;4.352;2023-06-14T14:29:58;29.80;32.90
72440;DHT22;60446;50.752;4.352;2023-06-14T14:32:25;30.10;31.50
72440;DHT22;60446;50.752;4.352;2023-06-14T14:34:52;29.90;29.60
72440;DHT22;60446;50.752;4.352;2023-06-14T14:37:20;29.80;31.40
72440;DHT22;60446;50.752;4.352;2023-06-14T14:39:47;29.90;30.40
72440;DHT22;60446;50.752;4.352;2023-06-14T14:42:14;30.00;31.60
72440;DHT22;60446;50.752;4.352;2023-06-14T14:44:42;30.20;33.00
72440;DHT22;60446;50.752;4.352;2023-06-14T14:47:09;30.30;30.10
72440;DHT22;60446;50.752;4.352;2023-06-14T14:49:36;30.40;31.20
72440;DHT22;60446;50.752;4.352;2023-06-14T14:52:04;30.30;29.90
72440;DHT22;60446;50.752;4.352;2023-06-14T14:54:49;30.20;30.40
72440;DHT22;60446;50.752;4.352;2023-06-14T14:57:16;30.50;32.40
72440;DHT22;60446;50.752;4.352;2023-06-14T14:59:43;31.10;29.50
72440;DHT22;60446;50.752;4.352;2023-06-14T15:02:11;31.70;29.90
72440;DHT22;60446;50.752;4.352;2023-06-14T15:04:38;32.40;28.70
72440;DHT22;60446;50.752;4.352;2023-06-14T15:07:05;33.30;28.40
72440;DHT22;60446;50.752;4.352;2023-06-14T15:09:33;33.40;27.80
72440;DHT22;60446;50.752;4.352;2023-06-14T15:12:00;33.60;27.00
72440;DHT22;60446;50.752;4.352;2023-06-14T15:14:27;33.70;26.00
72440;DHT22;60446;50.752;4.352;2023-06-14T15:16:54;33.50;26.70
72440;DHT22;60446;50.752;4.352;2023-06-14T15:19:22;33.70;28.50
72440;DHT22;60446;50.752;4.352;2023-06-14T15:21:49;34.10;27.10
72440;DHT22;60446;50.752;4.352;2023-06-14T15:24:16;34.20;26.60
72440;DHT22;60446;50.752;4.352;2023-06-14T15:26:56;34.70;25.90
72440;DHT22;60446;50.752;4.352;2023-06-14T15:29:23;34.60;26.30
72440;DHT22;60446;50.752;4.352;2023-06-14T15:31:50;34.40;25.90
72440;DHT22;60446;50.752;4.352;2023-06-14T15:34:17;34.70;25.70
72440;DHT22;60446;50.752;4.352;2023-06-14T15:36:45;34.60;24.90
72440;DHT22;60446;50.752;4.352;2023-06-14T15:39:12;34.40;27.10
72440;DHT22;60446;50.752;4.352;2023-06-14T15:41:39;35.00;26.40
72440;DHT22;60446;50.752;4.352;2023-06-14T15:44:06;35.50;27.30
72440;DHT22;60446;50.752;4.352;2023-06-14T15:46:33;36.00;26.50
72440;DHT22;60446;50.752;4.352;2023-06-14T15:49:00;36.30;25.20
72440;DHT22;60446;50.752;4.352;2023-06-14T15:51:29;36.40;25.80
72440;DHT22;60446;50.752;4.352;2023-06-14T15:53:56;36.20;24.90
72440;DHT22;60446;50.752;4.352;2023-06-14T15:56:24;35.60;25.50
72440;DHT22;60446;50.752;4.352;2023-06-14T15:58:52;35.30;26.00
72440;DHT22;60446;50.752;4.352;2023-06-14T16:01:21;35.30;26.50
72440;DHT22;60446;50.752;4.352;2023-06-14T16:03:49;35.70;25.80
72440;DHT22;60446;50.752;4.352;2023-06-14T16:06:16;35.90;25.40
72440;DHT22;60446;50.752;4.352;2023-06-14T16:08:46;36.10;25.00